createdAt,value
2019-06-26T00:00:46.250Z,27.50
2019-06-26T00:03:15.966Z,27.60
2019-06-26T00:05:45.686Z,27.70
2019-06-26T00:08:15.510Z,27.80
2019-06-26T00:10:45.086Z,27.80
2019-06-26T00:13:25.619Z,28.00
2019-06-26T00:15:45.738Z,28.00
2019-06-26T00:18:15.448Z,28.10
2019-06-26T00:20:45.000Z,28.20
2019-06-26T00:23:14.774Z,28.30
2019-06-26T00:25:44.476Z,28.40
2019-06-26T00:28:14.193Z,28.60
2019-06-26T00:30:44.238Z,28.70
2019-06-26T00:33:14.935Z,28.90
2019-06-26T00:35:44.648Z,29.00
2019-06-26T00:38:14.354Z,29.20
2019-06-26T00:40:44.070Z,29.30
2019-06-26T00:43:13.878Z,29.50
2019-06-26T00:45:43.588Z,29.60
2019-06-26T00:48:13.297Z,29.80
2019-06-26T00:50:43.007Z,29.90
2019-06-26T00:53:12.716Z,29.90
2019-06-26T00:55:42.528Z,30.10
2019-06-26T00:58:12.139Z,30.20
2019-06-26T01:00:43.176Z,30.40
2019-06-26T01:03:12.908Z,30.70
2019-06-26T01:05:42.601Z,30.90
2019-06-26T01:08:12.306Z,31.00
2019-06-26T01:10:42.086Z,31.20
2019-06-26T01:13:11.829Z,31.30
2019-06-26T01:15:41.443Z,31.30
2019-06-26T01:18:11.063Z,31.40
2019-06-26T01:20:40.651Z,31.40
2019-06-26T01:23:11.281Z,31.40
2019-06-26T01:25:41.094Z,31.50
2019-06-26T01:28:10.805Z,31.50
2019-06-26T01:30:40.516Z,31.60
2019-06-26T01:33:10.491Z,31.60
2019-06-26T01:35:40.240Z,31.50
2019-06-26T01:38:09.952Z,31.60
2019-06-26T01:40:39.967Z,31.60
2019-06-26T01:43:09.679Z,31.70
2019-06-26T01:45:39.389Z,31.70
2019-06-26T01:48:09.096Z,31.70
2019-06-26T01:50:38.819Z,31.80
2019-06-26T01:53:08.826Z,31.70
2019-06-26T01:55:38.535Z,31.70
2019-06-26T01:58:08.245Z,31.60
2019-06-26T02:00:37.954Z,31.50
2019-06-26T02:03:07.583Z,31.50
2019-06-26T02:05:39.114Z,31.50
2019-06-26T02:08:08.823Z,31.40
2019-06-26T02:10:38.534Z,31.50
2019-06-26T02:13:08.243Z,31.60
2019-06-26T02:15:37.954Z,31.70
2019-06-26T02:18:08.997Z,31.80
2019-06-26T02:20:38.705Z,31.90
2019-06-26T02:23:08.414Z,32.00
2019-06-26T02:25:38.227Z,32.10
2019-06-26T02:28:08.249Z,32.20
2019-06-26T02:30:37.953Z,32.40
2019-06-26T02:33:07.583Z,32.50
2019-06-26T02:35:40.137Z,32.60
2019-06-26T02:38:09.949Z,32.70
2019-06-26T02:40:39.761Z,32.90
2019-06-26T02:43:09.476Z,33.00
2019-06-26T02:45:39.999Z,33.00
2019-06-26T02:48:09.711Z,33.10
2019-06-26T02:50:39.428Z,33.30
2019-06-26T02:53:09.355Z,33.50
2019-06-26T02:55:39.045Z,33.60
2019-06-26T02:58:08.781Z,33.70
2019-06-26T03:00:38.465Z,33.80
2019-06-26T03:03:08.173Z,33.80
2019-06-26T03:05:37.986Z,34.00
2019-06-26T03:08:07.765Z,34.00
2019-06-26T03:10:37.507Z,34.10
2019-06-26T03:13:07.216Z,34.20
2019-06-26T03:15:36.929Z,34.20
2019-06-26T03:18:06.739Z,34.30
2019-06-26T03:20:40.954Z,34.40
2019-06-26T03:23:10.868Z,34.50
2019-06-26T03:25:40.405Z,34.50
2019-06-26T03:28:10.071Z,34.60
2019-06-26T03:30:40.178Z,34.60
2019-06-26T03:33:10.130Z,34.50
2019-06-26T03:35:40.962Z,34.40
2019-06-26T03:38:10.663Z,34.20
2019-06-26T03:40:40.477Z,34.30
2019-06-26T03:43:10.186Z,34.40
2019-06-26T03:45:39.896Z,34.40
2019-06-26T03:48:09.523Z,34.40
2019-06-26T03:50:39.211Z,34.40
2019-06-26T03:53:08.970Z,34.50
2019-06-26T03:55:38.839Z,34.60
2019-06-26T03:58:08.550Z,34.60
2019-06-26T04:00:44.539Z,34.60
2019-06-26T04:03:14.211Z,34.60
2019-06-26T04:05:48.533Z,34.70
2019-06-26T04:08:18.139Z,34.90
2019-06-26T04:10:47.953Z,34.80
2019-06-26T04:13:17.659Z,34.90
2019-06-26T04:15:50.700Z,35.10
2019-06-26T04:18:18.308Z,35.20
2019-06-26T04:20:48.019Z,35.30
2019-06-26T04:23:17.830Z,35.20
2019-06-26T04:25:47.538Z,35.30
2019-06-26T04:28:17.250Z,35.40
2019-06-26T04:30:46.963Z,35.40
2019-06-26T04:33:16.670Z,35.30
2019-06-26T04:35:46.480Z,35.20
2019-06-26T04:38:16.193Z,35.20
2019-06-26T04:40:45.907Z,35.20
2019-06-26T04:43:15.610Z,35.30
2019-06-26T04:45:57.579Z,35.30
2019-06-26T04:48:16.360Z,35.30
2019-06-26T04:50:46.071Z,35.30
2019-06-26T04:53:15.781Z,35.40
2019-06-26T04:55:46.822Z,35.40
2019-06-26T04:58:16.532Z,35.40
2019-06-26T05:00:46.548Z,35.40
2019-06-26T05:03:16.172Z,35.40
2019-06-26T05:05:45.819Z,35.50
2019-06-26T05:08:15.529Z,35.50
2019-06-26T05:10:46.226Z,35.50
2019-06-26T05:13:16.024Z,35.60
2019-06-26T05:15:45.637Z,35.70
2019-06-26T05:18:15.336Z,35.70
2019-06-26T05:20:45.048Z,35.70
2019-06-26T05:23:14.758Z,35.70
2019-06-26T05:25:44.567Z,35.70
2019-06-26T05:28:14.280Z,35.80
2019-06-26T05:30:43.933Z,36.00
2019-06-26T05:33:13.698Z,36.10
2019-06-26T05:35:43.408Z,36.30
2019-06-26T05:38:13.222Z,36.30
2019-06-26T05:40:42.848Z,36.20
2019-06-26T05:43:12.468Z,36.10
2019-06-26T05:45:42.144Z,36.10
2019-06-26T05:48:11.855Z,36.00
2019-06-26T05:50:43.148Z,35.80
2019-06-26T05:53:12.913Z,35.40
2019-06-26T05:55:42.947Z,35.20
2019-06-26T05:58:12.637Z,34.90
2019-06-26T06:00:42.351Z,34.80
2019-06-26T06:03:12.382Z,34.60
2019-06-26T06:05:42.082Z,34.60
2019-06-26T06:08:11.785Z,34.50
2019-06-26T06:10:41.496Z,34.30
2019-06-26T06:13:11.205Z,34.20
2019-06-26T06:15:41.019Z,34.20
2019-06-26T06:18:10.737Z,34.20
2019-06-26T06:20:40.557Z,34.30
2019-06-26T06:23:10.250Z,34.40
2019-06-26T06:25:39.960Z,34.40
2019-06-26T06:28:09.777Z,34.50
2019-06-26T06:30:39.403Z,34.50
2019-06-26T06:33:09.092Z,34.50
2019-06-26T06:35:38.797Z,34.50
2019-06-26T06:38:08.430Z,34.40
2019-06-26T06:40:38.220Z,34.40
2019-06-26T06:43:07.927Z,34.20
2019-06-26T06:45:37.739Z,34.20
2019-06-26T06:48:07.328Z,34.10
2019-06-26T06:50:37.057Z,34.10
2019-06-26T06:53:06.972Z,34.20
2019-06-26T06:55:36.598Z,34.30
2019-06-26T06:58:06.289Z,34.30
2019-06-26T07:00:35.999Z,34.40
2019-06-26T07:03:05.726Z,34.40
2019-06-26T07:05:35.726Z,34.60
2019-06-26T07:08:05.441Z,34.70
2019-06-26T07:10:35.144Z,34.80
2019-06-26T07:13:04.861Z,34.90
2019-06-26T07:15:34.568Z,35.00
2019-06-26T07:18:05.502Z,35.00
2019-06-26T07:20:35.278Z,35.10
2019-06-26T07:23:05.037Z,35.10
2019-06-26T07:25:34.734Z,35.10
2019-06-26T07:28:04.470Z,35.10
2019-06-26T07:30:34.159Z,35.10
2019-06-26T07:33:03.866Z,35.10
2019-06-26T07:35:33.573Z,35.10
2019-06-26T07:38:03.386Z,35.10
2019-06-26T07:40:33.096Z,35.10
2019-06-26T07:43:02.805Z,35.20
2019-06-26T07:45:32.536Z,35.20
2019-06-26T07:48:02.226Z,35.20
2019-06-26T07:50:32.704Z,35.30
2019-06-26T07:53:02.570Z,35.20
2019-06-26T07:55:32.291Z,35.20
2019-06-26T07:58:03.424Z,35.30
2019-06-26T08:00:33.130Z,35.30
2019-06-26T08:03:04.464Z,35.30
2019-06-26T08:05:33.881Z,35.20
2019-06-26T08:08:03.590Z,35.20
2019-06-26T08:10:33.630Z,35.20
2019-06-26T08:13:03.318Z,35.30
2019-06-26T08:15:33.029Z,35.30
2019-06-26T08:18:02.656Z,35.30
2019-06-26T08:20:32.350Z,35.40
2019-06-26T08:23:02.172Z,35.40
2019-06-26T08:25:32.277Z,35.40
2019-06-26T08:28:02.600Z,35.50
2019-06-26T08:30:32.310Z,35.40
2019-06-26T08:33:02.943Z,35.60
2019-06-26T08:35:32.959Z,35.60
2019-06-26T08:38:11.132Z,35.70
2019-06-26T08:40:33.606Z,35.70
2019-06-26T08:43:03.330Z,35.80
2019-06-26T08:45:33.044Z,35.80
2019-06-26T08:48:16.780Z,35.80
2019-06-26T08:50:33.779Z,35.80
2019-06-26T08:53:03.492Z,35.90
2019-06-26T08:55:33.199Z,35.80
2019-06-26T08:58:02.910Z,35.70
2019-06-26T09:00:32.722Z,35.60
2019-06-26T09:03:02.431Z,35.60
2019-06-26T09:05:46.823Z,35.60
2019-06-26T09:08:03.210Z,35.70
2019-06-26T09:10:34.018Z,35.80
2019-06-26T09:13:05.172Z,35.80
2019-06-26T09:15:35.809Z,35.90
2019-06-26T09:18:05.501Z,36.00
2019-06-26T09:20:39.530Z,36.10
2019-06-26T09:23:09.222Z,36.20
2019-06-26T09:25:40.066Z,36.30
2019-06-26T09:28:10.704Z,36.20
2019-06-26T09:30:41.134Z,36.10
2019-06-26T09:33:10.825Z,36.10
2019-06-26T09:35:40.551Z,36.00
2019-06-26T09:38:10.267Z,35.90
2019-06-26T09:40:39.784Z,35.80
2019-06-26T09:43:09.463Z,35.70
2019-06-26T09:45:39.088Z,35.60
2019-06-26T09:48:08.683Z,35.50
2019-06-26T09:50:38.539Z,35.30
2019-06-26T09:53:08.302Z,35.20
2019-06-26T09:55:38.010Z,35.10
2019-06-26T09:58:07.719Z,35.00
2019-06-26T10:00:37.444Z,35.00
2019-06-26T10:03:07.249Z,35.00
2019-06-26T10:05:36.951Z,35.00
2019-06-26T10:08:06.543Z,35.00
2019-06-26T10:10:37.205Z,34.90
2019-06-26T10:13:08.031Z,34.90
2019-06-26T10:15:38.046Z,34.80
2019-06-26T10:18:07.771Z,34.80
2019-06-26T10:20:37.464Z,34.70
2019-06-26T10:23:07.174Z,34.80
2019-06-26T10:25:36.882Z,34.80
2019-06-26T10:28:06.694Z,34.80
2019-06-26T10:30:36.405Z,34.80
2019-06-26T10:33:06.117Z,34.80
2019-06-26T10:35:35.825Z,34.80
2019-06-26T10:38:05.451Z,34.80
2019-06-26T10:40:35.244Z,34.80
2019-06-26T10:43:05.132Z,34.80
2019-06-26T10:45:36.242Z,34.70
2019-06-26T10:48:05.918Z,34.70
2019-06-26T10:50:47.524Z,34.60
2019-06-26T10:53:06.661Z,34.50
2019-06-26T10:55:36.375Z,34.40
2019-06-26T10:58:06.001Z,34.30
2019-06-26T11:00:35.686Z,34.30
2019-06-26T11:03:05.401Z,34.20
2019-06-26T11:05:35.223Z,34.10
2019-06-26T11:08:04.921Z,34.10
2019-06-26T11:10:34.629Z,34.10
2019-06-26T11:13:04.341Z,34.00
2019-06-26T11:15:34.051Z,33.90
2019-06-26T11:18:03.983Z,33.90
2019-06-26T11:20:33.594Z,33.80
2019-06-26T11:23:03.283Z,33.70
2019-06-26T11:25:33.828Z,33.60
2019-06-26T11:28:03.519Z,33.50
2019-06-26T11:30:33.233Z,33.40
2019-06-26T11:33:02.943Z,33.40
2019-06-26T11:35:32.749Z,33.30
2019-06-26T11:38:02.555Z,33.30
2019-06-26T11:40:32.273Z,33.20
2019-06-26T11:43:01.983Z,33.20
2019-06-26T11:45:31.696Z,33.10
2019-06-26T11:48:01.527Z,33.10
2019-06-26T11:50:31.214Z,33.00
2019-06-26T11:53:00.923Z,33.00
2019-06-26T11:55:30.637Z,32.90
2019-06-26T11:58:00.342Z,32.80
2019-06-26T12:00:30.695Z,32.90
2019-06-26T12:03:00.721Z,32.80
2019-06-26T12:05:30.398Z,32.80
2019-06-26T12:08:00.125Z,32.70
2019-06-26T12:10:29.818Z,32.70
2019-06-26T12:12:59.624Z,32.70
2019-06-26T12:15:29.167Z,32.70
2019-06-26T12:17:58.843Z,32.70
2019-06-26T12:20:28.549Z,32.60
2019-06-26T12:22:58.262Z,32.60
2019-06-26T12:25:27.969Z,32.50
2019-06-26T12:27:57.680Z,32.40
2019-06-26T12:30:27.388Z,32.40
2019-06-26T12:33:02.886Z,32.30
2019-06-26T12:35:28.141Z,32.30
2019-06-26T12:37:57.972Z,32.30
2019-06-26T12:40:30.913Z,32.30
2019-06-26T12:42:58.927Z,32.30
2019-06-26T12:45:28.618Z,32.30
2019-06-26T12:47:59.556Z,32.20
2019-06-26T12:50:35.371Z,32.20
2019-06-26T12:53:00.206Z,32.20
2019-06-26T12:55:32.893Z,32.10
2019-06-26T12:58:12.412Z,32.10
2019-06-26T13:00:31.894Z,32.10
2019-06-26T13:03:01.603Z,32.10
2019-06-26T13:05:31.315Z,32.10
2019-06-26T13:08:01.126Z,32.10
2019-06-26T13:10:30.838Z,32.00
2019-06-26T13:13:00.850Z,32.00
2019-06-26T13:15:30.408Z,32.00
2019-06-26T13:18:01.450Z,31.90
2019-06-26T13:20:31.013Z,31.90
2019-06-26T13:23:00.713Z,31.90
2019-06-26T13:25:30.736Z,31.80
2019-06-26T13:28:00.441Z,31.80
2019-06-26T13:30:31.481Z,31.70
2019-06-26T13:33:01.600Z,31.70
2019-06-26T13:35:31.380Z,31.60
2019-06-26T13:38:00.943Z,31.60
2019-06-26T13:40:32.268Z,31.60
2019-06-26T13:43:03.203Z,31.60
2019-06-26T13:45:32.916Z,31.60
2019-06-26T13:48:02.727Z,31.60
2019-06-26T13:50:32.434Z,31.60
2019-06-26T13:53:02.073Z,31.50
2019-06-26T13:55:31.754Z,31.50
2019-06-26T13:58:01.466Z,31.50
2019-06-26T14:00:31.377Z,31.40
2019-06-26T14:03:01.264Z,31.40
2019-06-26T14:05:31.002Z,31.40
2019-06-26T14:08:00.712Z,31.40
2019-06-26T14:10:30.421Z,31.30
2019-06-26T14:13:00.251Z,31.30
2019-06-26T14:15:29.941Z,31.30
2019-06-26T14:17:59.651Z,31.30
2019-06-26T14:20:29.361Z,31.20
2019-06-26T14:22:59.072Z,31.20
2019-06-26T14:25:29.002Z,31.10
2019-06-26T14:27:59.738Z,31.10
2019-06-26T14:30:31.375Z,31.10
2019-06-26T14:33:02.425Z,31.10
2019-06-26T14:35:32.125Z,31.00
2019-06-26T14:38:01.936Z,31.00
2019-06-26T14:40:31.659Z,31.00
2019-06-26T14:43:01.360Z,30.90
2019-06-26T14:45:31.065Z,30.90
2019-06-26T14:48:00.775Z,30.80
2019-06-26T14:50:30.596Z,30.80
2019-06-26T14:53:00.516Z,30.80
2019-06-26T14:55:30.316Z,30.80
2019-06-26T14:58:07.557Z,30.80
2019-06-26T15:00:36.493Z,30.80
2019-06-26T15:03:06.306Z,30.80
2019-06-26T15:05:36.013Z,30.70
2019-06-26T15:08:05.726Z,30.70
2019-06-26T15:10:35.435Z,30.70
2019-06-26T15:13:05.144Z,30.70
2019-06-26T15:15:34.955Z,30.60
2019-06-26T15:18:04.666Z,30.60
2019-06-26T15:20:35.603Z,30.60
2019-06-26T15:23:05.312Z,30.60
2019-06-26T15:25:35.230Z,30.50
2019-06-26T15:28:05.243Z,30.50
2019-06-26T15:30:34.957Z,30.50
2019-06-26T15:33:04.664Z,30.50
2019-06-26T15:35:34.801Z,30.50
2019-06-26T15:38:04.495Z,30.60
2019-06-26T15:40:34.447Z,30.60
2019-06-26T15:43:04.218Z,30.50
2019-06-26T15:45:35.301Z,30.50
2019-06-26T15:48:05.076Z,30.50
2019-06-26T15:50:34.992Z,30.50
2019-06-26T15:53:04.803Z,30.50
2019-06-26T15:55:34.509Z,30.50
2019-06-26T15:58:04.061Z,30.50
2019-06-26T16:00:33.726Z,30.50
2019-06-26T16:03:03.330Z,30.50
2019-06-26T16:05:33.143Z,30.50
2019-06-26T16:08:02.903Z,30.50
2019-06-26T16:10:34.535Z,30.50
2019-06-26T16:13:04.525Z,30.50
2019-06-26T16:15:34.645Z,30.50
2019-06-26T16:18:21.046Z,30.50
2019-06-26T16:20:50.756Z,30.50
2019-06-26T16:23:20.464Z,30.50
2019-06-26T16:25:50.175Z,30.50
2019-06-26T16:28:19.926Z,30.50
2019-06-26T16:30:50.004Z,30.50
2019-06-26T16:33:19.714Z,30.50
2019-06-26T16:35:49.422Z,30.50
2019-06-26T16:38:19.142Z,30.50
2019-06-26T16:40:48.766Z,30.50
2019-06-26T16:43:18.551Z,30.50
2019-06-26T16:45:48.998Z,30.50
2019-06-26T16:48:18.700Z,30.40
2019-06-26T16:50:48.398Z,30.50
2019-06-26T16:53:18.111Z,30.50
2019-06-26T16:55:47.928Z,30.50
2019-06-26T16:58:17.553Z,30.40
2019-06-26T17:00:47.239Z,30.40
2019-06-26T17:03:17.068Z,30.40
2019-06-26T17:05:46.759Z,30.40
2019-06-26T17:08:16.570Z,30.40
2019-06-26T17:10:46.199Z,30.30
2019-06-26T17:13:15.889Z,30.30
2019-06-26T17:15:45.599Z,30.30
2019-06-26T17:18:15.227Z,30.30
2019-06-26T17:20:45.022Z,30.20
2019-06-26T17:23:14.728Z,30.20
2019-06-26T17:25:44.440Z,30.10
2019-06-26T17:28:14.150Z,30.10
2019-06-26T17:30:43.857Z,30.00
2019-06-26T17:33:13.670Z,29.90
2019-06-26T17:35:43.378Z,29.80
2019-06-26T17:38:13.090Z,29.70
2019-06-26T17:40:42.799Z,29.60
2019-06-26T17:43:13.643Z,29.50
2019-06-26T17:45:43.781Z,29.50
2019-06-26T17:48:13.464Z,29.40
2019-06-26T17:50:43.173Z,29.40
2019-06-26T17:53:21.586Z,29.30
2019-06-26T17:55:43.925Z,29.30
2019-06-26T17:58:13.633Z,29.20
2019-06-26T18:00:43.343Z,29.20
2019-06-26T18:03:13.056Z,29.10
2019-06-26T18:05:43.376Z,29.00
2019-06-26T18:08:13.199Z,29.00
2019-06-26T18:10:42.899Z,29.00
2019-06-26T18:13:12.608Z,28.90
2019-06-26T18:15:42.319Z,28.90
2019-06-26T18:18:12.083Z,28.80
2019-06-26T18:20:41.947Z,28.80
2019-06-26T18:23:11.655Z,28.80
2019-06-26T18:25:41.361Z,28.70
2019-06-26T18:28:11.073Z,28.70
2019-06-26T18:30:40.783Z,28.70
2019-06-26T18:33:10.799Z,28.60
2019-06-26T18:35:40.516Z,28.60
2019-06-26T18:38:10.218Z,28.60
2019-06-26T18:40:39.930Z,28.50
2019-06-26T18:43:09.637Z,28.50
2019-06-26T18:45:39.449Z,28.50
2019-06-26T18:48:09.160Z,28.40
2019-06-26T18:50:38.869Z,28.40
2019-06-26T18:53:08.578Z,28.40
2019-06-26T18:55:38.289Z,28.40
2019-06-26T18:58:08.102Z,28.40
2019-06-26T19:00:37.812Z,28.40
2019-06-26T19:03:07.520Z,28.30
2019-06-26T19:05:37.230Z,28.30
2019-06-26T19:08:06.942Z,28.30
2019-06-26T19:10:36.760Z,28.30
2019-06-26T19:13:06.462Z,28.30
2019-06-26T19:15:36.173Z,28.30
2019-06-26T19:18:05.894Z,28.30
2019-06-26T19:20:35.591Z,28.30
2019-06-26T19:23:05.419Z,28.30
2019-06-26T19:25:35.115Z,28.20
2019-06-26T19:28:04.823Z,28.20
2019-06-26T19:30:34.532Z,28.20
2019-06-26T19:33:04.244Z,28.20
2019-06-26T19:35:34.261Z,28.20
2019-06-26T19:38:03.972Z,28.20
2019-06-26T19:40:33.678Z,28.20
2019-06-26T19:43:05.539Z,28.20
2019-06-26T19:45:35.352Z,28.10
2019-06-26T19:48:05.165Z,28.10
2019-06-26T19:50:34.874Z,28.20
2019-06-26T19:53:04.582Z,28.10
2019-06-26T19:55:34.297Z,28.10
2019-06-26T19:58:04.006Z,28.10
2019-06-26T20:00:34.023Z,28.10
2019-06-26T20:03:03.729Z,28.00
2019-06-26T20:05:33.360Z,28.00
2019-06-26T20:08:03.158Z,28.00
2019-06-26T20:10:32.860Z,28.00
2019-06-26T20:13:02.877Z,27.90
2019-06-26T20:15:32.595Z,27.90
2019-06-26T20:18:04.310Z,27.90
2019-06-26T20:20:33.236Z,27.90
2019-06-26T20:23:06.017Z,27.80
2019-06-26T20:25:35.828Z,27.80
2019-06-26T20:28:06.479Z,27.80
2019-06-26T20:30:37.194Z,27.80
2019-06-26T20:33:06.906Z,27.70
2019-06-26T20:35:38.831Z,27.70
2019-06-26T20:38:07.550Z,27.70
2019-06-26T20:40:37.569Z,27.60
2019-06-26T20:43:07.277Z,27.60
2019-06-26T20:45:36.988Z,27.60
2019-06-26T20:48:06.800Z,27.60
2019-06-26T20:50:36.519Z,27.60
2019-06-26T20:53:06.220Z,27.50
2019-06-26T20:55:35.949Z,27.50
2019-06-26T20:58:05.639Z,27.50
2019-06-26T21:00:35.452Z,27.50
2019-06-26T21:03:05.160Z,27.50
2019-06-26T21:05:34.870Z,27.50
2019-06-26T21:08:04.581Z,27.40
2019-06-26T21:10:34.291Z,27.50
2019-06-26T21:13:04.108Z,27.50
2019-06-26T21:15:33.816Z,27.50
2019-06-26T21:18:03.524Z,27.50
2019-06-26T21:20:33.234Z,27.50
2019-06-26T21:23:02.941Z,27.50
2019-06-26T21:25:32.753Z,27.40
2019-06-26T21:28:02.470Z,27.40
2019-06-26T21:30:32.276Z,27.50
2019-06-26T21:33:02.069Z,27.40
2019-06-26T21:35:31.906Z,27.40
2019-06-26T21:38:01.711Z,27.40
2019-06-26T21:40:31.421Z,27.30
2019-06-26T21:43:01.131Z,27.30
2019-06-26T21:45:30.841Z,27.30
2019-06-26T21:48:00.551Z,27.30
2019-06-26T21:50:30.369Z,27.30
2019-06-26T21:53:00.079Z,27.20
2019-06-26T21:55:34.141Z,27.20
2019-06-26T21:58:00.722Z,27.20
2019-06-26T22:00:31.455Z,27.20
2019-06-26T22:03:01.165Z,27.20
2019-06-26T22:05:30.875Z,27.10
2019-06-26T22:08:00.685Z,27.20
2019-06-26T22:10:30.507Z,27.10
2019-06-26T22:13:00.211Z,27.10
2019-06-26T22:15:29.917Z,27.10
2019-06-26T22:17:59.627Z,27.10
2019-06-26T22:20:29.442Z,27.10
2019-06-26T22:22:59.076Z,27.00
2019-06-26T22:25:28.756Z,27.00
2019-06-26T22:27:58.469Z,27.00
2019-06-26T22:30:28.177Z,27.00
2019-06-26T22:32:57.993Z,27.00
2019-06-26T22:35:27.699Z,27.00
2019-06-26T22:37:57.450Z,27.00
2019-06-26T22:40:27.117Z,27.00
2019-06-26T22:42:57.755Z,27.00
2019-06-26T22:45:27.767Z,26.90
2019-06-26T22:47:57.391Z,26.90
2019-06-26T22:50:27.083Z,26.90
2019-06-26T22:52:56.796Z,26.90
2019-06-26T22:55:26.509Z,26.90
2019-06-26T22:57:56.316Z,26.90
2019-06-26T23:00:26.028Z,26.90
2019-06-26T23:02:55.736Z,26.90
2019-06-26T23:05:25.445Z,26.90
2019-06-26T23:07:55.156Z,26.90
2019-06-26T23:10:24.970Z,26.80
2019-06-26T23:12:54.512Z,26.80
2019-06-26T23:15:24.208Z,26.90
2019-06-26T23:17:53.895Z,26.90
2019-06-26T23:20:23.436Z,26.90
2019-06-26T23:22:53.211Z,26.90
2019-06-26T23:25:22.922Z,26.90
2019-06-26T23:27:52.629Z,26.90
2019-06-26T23:30:22.340Z,26.90
2019-06-26T23:32:52.050Z,27.00
2019-06-26T23:35:21.594Z,27.00
2019-06-26T23:37:51.263Z,27.00
2019-06-26T23:40:20.904Z,27.00
2019-06-26T23:42:50.477Z,27.00
2019-06-26T23:45:20.040Z,27.00
2019-06-26T23:47:49.610Z,27.00
2019-06-26T23:50:19.300Z,27.00
2019-06-26T23:52:49.113Z,27.10
2019-06-26T23:55:18.867Z,27.10
2019-06-26T23:57:58.568Z,27.10
